Time;durP1;ratioP1;P1;durP2;ratioP2;P2;SDS_P1;SDS_P2;PMS_P1;PMS_P2;Temp;Humidity;BMP_temperature;BMP_pressure;BME280_temperature;BME280_humidity;BME280_pressure;Samples;Min_cycle;Max_cycle;Signal;HPM_P1;HPM_P2
2023/06/19 00:03:11;;;;;;;;;;;;;;;23.14;44.78711;100791;;;;-69
2023/06/19 00:08:13;;;;;;;;;;;;;;;23.12;45.03809;100771.3;;;;-67
2023/06/19 00:13:10;;;;;;;;;;;;;;;23.08;45.19629;100756.1;;;;-69
2023/06/19 00:18:10;;;;;;;;;;;;;;;23.07;45.5498;100763.7;;;;-67
2023/06/19 00:23:13;;;;;;;;;;;;;;;23.03;45.12207;100765.9;;;;-68
2023/06/19 00:25:02;;;;;;;0.3;0.1;;;;;;;;;;;;;-68
2023/06/19 00:28:13;;;;;;;;;;;;;;;22.98;45.28906;100765.3;;;;-68
2023/06/19 00:33:10;;;;;;;;;;;;;;;22.98;45.3125;100774.2;;;;-70
2023/06/19 00:38:12;;;;;;;;;;;;;;;22.95;45.61914;100782.1;;;;-69
2023/06/19 00:43:10;;;;;;;;;;;;;;;22.93;46.05371;100786.7;;;;-67
2023/06/19 00:48:10;;;;;;;;;;;;;;;22.87;46.45117;100785.8;;;;-66
2023/06/19 00:53:11;;;;;;;;;;;;;;;22.87;46.49609;100781.9;;;;-68
2023/06/19 00:55:03;;;;;;;0.3;0.1;;;;;;;;;;;;;-70
2023/06/19 00:58:10;;;;;;;;;;;;;;;22.89;46.17578;100770.3;;;;-69
2023/06/19 01:03:10;;;;;;;;;;;;;;;22.9;46.23438;100776.3;;;;-68
2023/06/19 01:08:16;;;;;;;;;;;;;;;22.83;47.35449;100777.2;;;;-69
2023/06/19 01:13:12;;;;;;;;;;;;;;;22.81;47.32813;100770.4;;;;-69
2023/06/19 01:18:11;;;;;;;;;;;;;;;22.73;47.75781;100779.6;;;;-66
2023/06/19 01:23:18;;;;;;;;;;;;;;;22.73;47.6084;100789.7;;;;-67
2023/06/19 01:25:07;;;;;;;0.3;0.1;;;;;;;;;;;;;-69
2023/06/19 01:28:13;;;;;;;;;;;;;;;22.53;50.02051;100797.2;;;;-68
2023/06/19 01:33:13;;;;;;;;;;;;;;;22.51;51.01563;100794.1;;;;-69
2023/06/19 01:38:11;;;;;;;;;;;;;;;22.33;52.43945;100795.7;;;;-67
2023/06/19 01:43:11;;;;;;;;;;;;;;;22.23;53.50293;100799.8;;;;-68
2023/06/19 01:48:11;;;;;;;;;;;;;;;22.13;54.20117;100801.5;;;;-69
2023/06/19 01:53:10;;;;;;;;;;;;;;;22.08;54.00098;100805.5;;;;-69
2023/06/19 01:55:11;;;;;;;0.2;0;;;;;;;;;;;;;-69
2023/06/19 01:58:13;;;;;;;;;;;;;;;22.09;53.75195;100808.1;;;;-68
2023/06/19 02:03:10;;;;;;;;;;;;;;;22.02;53.63965;100805.3;;;;-70
2023/06/19 02:08:10;;;;;;;;;;;;;;;21.93;53.69824;100797.2;;;;-69
2023/06/19 02:13:10;;;;;;;;;;;;;;;21.89;53.85254;100801.8;;;;-67
2023/06/19 02:18:10;;;;;;;;;;;;;;;21.78;54.16016;100804.3;;;;-68
2023/06/19 02:23:12;;;;;;;;;;;;;;;21.76;55.51953;100805.9;;;;-70
2023/06/19 02:25:14;;;;;;;0.2;0.1;;;;;;;;;;;;;-70
2023/06/19 02:28:10;;;;;;;;;;;;;;;21.73;55.70996;100792.4;;;;-67
2023/06/19 02:33:10;;;;;;;;;;;;;;;21.76;54.62695;100800.5;;;;-68
2023/06/19 02:38:14;;;;;;;;;;;;;;;21.68;56.57129;100808;;;;-68
2023/06/19 02:43:10;;;;;;;;;;;;;;;21.71;56.96484;100815.6;;;;-68
2023/06/19 02:48:13;;;;;;;;;;;;;;;21.73;57.8252;100819.6;;;;-67
2023/06/19 02:53:11;;;;;;;;;;;;;;;21.56;60.45117;100820.7;;;;-69
2023/06/19 02:55:17;;;;;;;0.2;0.1;;;;;;;;;;;;;-67
2023/06/19 02:58:10;;;;;;;;;;;;;;;21.69;58.75586;100827.1;;;;-67
2023/06/19 03:03:12;;;;;;;;;;;;;;;21.68;59.05176;100824.3;;;;-68
2023/06/19 03:08:10;;;;;;;;;;;;;;;21.62;59.55664;100819.6;;;;-69
2023/06/19 03:13:10;;;;;;;;;;;;;;;21.67;59.58594;100819.2;;;;-68
2023/06/19 03:18:12;;;;;;;;;;;;;;;21.7;59.15527;100818.4;;;;-69
2023/06/19 03:23:10;;;;;;;;;;;;;;;21.64;60.53027;100824;;;;-69
2023/06/19 03:25:20;;;;;;;0.2;0.1;;;;;;;;;;;;;-68
2023/06/19 03:28:10;;;;;;;;;;;;;;;21.66;60.01855;100827.7;;;;-68
2023/06/19 03:33:10;;;;;;;;;;;;;;;21.63;60.49414;100830.4;;;;-68
2023/06/19 03:38:10;;;;;;;;;;;;;;;21.52;61.83691;100834.7;;;;-68
2023/06/19 03:43:10;;;;;;;;;;;;;;;21.6;61.74512;100836.5;;;;-68
2023/06/19 03:48:19;;;;;;;;;;;;;;;21.55;62.50293;100833.3;;;;-68
2023/06/19 03:53:10;;;;;;;;;;;;;;;21.51;62.63477;100848.7;;;;-68
2023/06/19 03:55:23;;;;;;;0.2;0;;;;;;;;;;;;;-69
2023/06/19 03:58:10;;;;;;;;;;;;;;;21.41;64.2832;100858.1;;;;-69
2023/06/19 04:03:13;;;;;;;;;;;;;;;21.53;64.86035;100866.9;;;;-69
2023/06/19 04:08:10;;;;;;;;;;;;;;;21.43;63.91211;100869.6;;;;-69
2023/06/19 04:13:10;;;;;;;;;;;;;;;21.3;64.92969;100875.9;;;;-69
2023/06/19 04:18:13;;;;;;;;;;;;;;;21.32;64.83008;100890;;;;-68
2023/06/19 04:23:10;;;;;;;;;;;;;;;21.23;65.76172;100898.8;;;;-69
2023/06/19 04:25:29;;;;;;;0.8;0.3;;;;;;;;;;;;;-68
2023/06/19 04:28:10;;;;;;;;;;;;;;;21.18;66.3457;100914.5;;;;-67
2023/06/19 04:33:10;;;;;;;;;;;;;;;21.25;66.28809;100923.3;;;;-68
2023/06/19 04:38:14;;;;;;;;;;;;;;;21.23;65.97852;100937.5;;;;-67
2023/06/19 04:43:10;;;;;;;;;;;;;;;21.06;67.31836;100938.2;;;;-69
2023/06/19 04:48:11;;;;;;;;;;;;;;;20.9;69.19336;100931.3;;;;-68
2023/06/19 04:53:11;;;;;;;;;;;;;;;21.02;68.0293;100939.7;;;;-68
2023/06/19 04:55:30;;;;;;;0.9;0.4;;;;;;;;;;;;;-69
2023/06/19 04:58:11;;;;;;;;;;;;;;;20.94;68.34668;100949.6;;;;-68
2023/06/19 05:03:13;;;;;;;;;;;;;;;20.88;68.31543;100965.1;;;;-68
2023/06/19 05:08:10;;;;;;;;;;;;;;;20.8;68.80371;100974;;;;-67
2023/06/19 05:13:10;;;;;;;;;;;;;;;20.87;68.04199;100989.2;;;;-69
2023/06/19 05:18:11;;;;;;;;;;;;;;;20.87;68.21191;100995.8;;;;-68
2023/06/19 05:23:10;;;;;;;;;;;;;;;20.84;67.80957;100988.7;;;;-68
2023/06/19 05:25:35;;;;;;;0.2;0;;;;;;;;;;;;;-68
2023/06/19 05:28:13;;;;;;;;;;;;;;;20.83;67.60254;100993.2;;;;-68
2023/06/19 05:33:15;;;;;;;;;;;;;;;20.77;68.40039;101004.2;;;;-67
2023/06/19 05:38:10;;;;;;;;;;;;;;;20.76;68.17285;101018.5;;;;-68
2023/06/19 05:43:10;;;;;;;;;;;;;;;20.74;68.29492;101025.7;;;;-68
2023/06/19 05:48:11;;;;;;;;;;;;;;;20.69;67.99121;101033.1;;;;-67
2023/06/19 05:53:10;;;;;;;;;;;;;;;20.61;68.59082;101050.1;;;;-69
2023/06/19 05:55:36;;;;;;;0.3;0.1;;;;;;;;;;;;;-68
2023/06/19 05:58:10;;;;;;;;;;;;;;;20.54;68.50195;101050.1;;;;-68
2023/06/19 06:03:10;;;;;;;;;;;;;;;20.52;68.79395;101063;;;;-69
2023/06/19 06:08:10;;;;;;;;;;;;;;;20.52;68.04395;101067.9;;;;-68
2023/06/19 06:13:10;;;;;;;;;;;;;;;20.55;67.68652;101077.9;;;;-70
2023/06/19 06:18:10;;;;;;;;;;;;;;;20.56;68.01758;101087.5;;;;-69
2023/06/19 06:23:10;;;;;;;;;;;;;;;20.55;67.11621;101101.2;;;;-70
2023/06/19 06:25:39;;;;;;;0.2;0.1;;;;;;;;;;;;;-68
2023/06/19 06:28:11;;;;;;;;;;;;;;;20.53;67.6377;101107.8;;;;-68
2023/06/19 06:33:10;;;;;;;;;;;;;;;20.57;67.56445;101113.7;;;;-66
2023/06/19 06:38:10;;;;;;;;;;;;;;;20.58;67.24609;101123.5;;;;-68
2023/06/19 06:43:10;;;;;;;;;;;;;;;20.61;66.27246;101131.8;;;;-68
2023/06/19 06:48:10;;;;;;;;;;;;;;;20.58;66.15625;101135.7;;;;-68
2023/06/19 06:53:10;;;;;;;;;;;;;;;20.5;66.15527;101139;;;;-68
2023/06/19 06:55:43;;;;;;;0.3;0.1;;;;;;;;;;;;;-67
2023/06/19 06:58:13;;;;;;;;;;;;;;;20.49;65.7334;101144;;;;-69
2023/06/19 07:03:11;;;;;;;;;;;;;;;20.49;65.64258;101154.9;;;;-68
2023/06/19 07:08:10;;;;;;;;;;;;;;;20.46;65.39844;101158.8;;;;-68
2023/06/19 07:13:10;;;;;;;;;;;;;;;20.46;65.41113;101166.6;;;;-69
2023/06/19 07:18:10;;;;;;;;;;;;;;;20.48;65.36816;101179.1;;;;-68
2023/06/19 07:23:10;;;;;;;;;;;;;;;20.44;65.17969;101188.9;;;;-67
2023/06/19 07:25:46;;;;;;;0.2;0;;;;;;;;;;;;;-67
2023/06/19 07:28:12;;;;;;;;;;;;;;;20.43;65.33789;101195.1;;;;-67
2023/06/19 07:33:10;;;;;;;;;;;;;;;20.33;65.15234;101203.1;;;;-68
2023/06/19 07:38:10;;;;;;;;;;;;;;;20.29;65.13672;101207.4;;;;-68
2023/06/19 07:43:10;;;;;;;;;;;;;;;20.32;65.29883;101203;;;;-69
2023/06/19 07:48:10;;;;;;;;;;;;;;;20.37;65.16992;101211.9;;;;-68
2023/06/19 07:53:10;;;;;;;;;;;;;;;20.43;65.08691;101221.5;;;;-67
2023/06/19 07:55:50;;;;;;;0.7;0.3;;;;;;;;;;;;;-67
2023/06/19 07:58:10;;;;;;;;;;;;;;;20.54;65.32031;101228.8;;;;-69
2023/06/19 08:03:10;;;;;;;;;;;;;;;20.66;64.58691;101234.9;;;;-68
2023/06/19 08:08:11;;;;;;;;;;;;;;;20.66;64.47363;101248.7;;;;-70
2023/06/19 08:13:11;;;;;;;;;;;;;;;20.75;64.31445;101244.2;;;;-70
2023/06/19 08:18:10;;;;;;;;;;;;;;;20.8;63.77637;101248.4;;;;-69
2023/06/19 08:23:10;;;;;;;;;;;;;;;20.87;64.12793;101251.3;;;;-67
2023/06/19 08:25:51;;;;;;;0.2;0.1;;;;;;;;;;;;;-68
2023/06/19 08:28:10;;;;;;;;;;;;;;;20.92;63.61035;101270.9;;;;-69
2023/06/19 08:33:10;;;;;;;;;;;;;;;20.98;63.48242;101265.8;;;;-68
2023/06/19 08:38:10;;;;;;;;;;;;;;;21;62.89355;101264.2;;;;-69
2023/06/19 08:43:10;;;;;;;;;;;;;;;21.02;63.27148;101286.4;;;;-69
2023/06/19 08:48:10;;;;;;;;;;;;;;;21.14;62.99219;101288.4;;;;-68
2023/06/19 08:53:10;;;;;;;;;;;;;;;21.3;62.98047;101297.7;;;;-69
2023/06/19 08:55:54;;;;;;;0.4;0.1;;;;;;;;;;;;;-68
2023/06/19 08:58:10;;;;;;;;;;;;;;;21.34;62.87207;101315;;;;-67
2023/06/19 09:03:10;;;;;;;;;;;;;;;21.48;62.66504;101319.5;;;;-68
2023/06/19 09:08:16;;;;;;;;;;;;;;;21.54;62.2627;101326.6;;;;-69
2023/06/19 09:13:13;;;;;;;;;;;;;;;21.57;62.26563;101326.9;;;;-69
2023/06/19 09:18:14;;;;;;;;;;;;;;;21.68;61.63086;101329.9;;;;-68
2023/06/19 09:23:10;;;;;;;;;;;;;;;21.74;61.54785;101332.1;;;;-68
2023/06/19 09:26:01;;;;;;;0.4;0.2;;;;;;;;;;;;;-68
2023/06/19 09:28:22;;;;;;;;;;;;;;;21.69;61.5293;101324.3;;;;-68
2023/06/19 09:33:14;;;;;;;;;;;;;;;21.91;60.95508;101323.3;;;;-70
2023/06/19 09:38:10;;;;;;;;;;;;;;;22.15;60.70117;101331.6;;;;-68
2023/06/19 09:43:11;;;;;;;;;;;;;;;22.37;60.18262;101351.4;;;;-68
2023/06/19 09:48:15;;;;;;;;;;;;;;;22.6;59.76758;101351.6;;;;-68
2023/06/19 09:53:11;;;;;;;;;;;;;;;22.95;58.81641;101353.1;;;;-69
2023/06/19 09:56:01;;;;;;;0.2;0;;;;;;;;;;;;;-68
2023/06/19 09:58:10;;;;;;;;;;;;;;;23.15;57.98535;101348.2;;;;-68
2023/06/19 10:03:16;;;;;;;;;;;;;;;23.33;57.56152;101355.6;;;;-69
2023/06/19 10:08:12;;;;;;;;;;;;;;;23.71;56.51953;101365.1;;;;-68
2023/06/19 10:13:20;;;;;;;;;;;;;;;23.8;56.13867;101370.5;;;;-69
2023/06/19 10:18:10;;;;;;;;;;;;;;;23.76;55.99609;101369.3;;;;-69
2023/06/19 10:23:11;;;;;;;;;;;;;;;23.94;55.80078;101378.7;;;;-68
2023/06/19 10:26:04;;;;;;;0.2;0.1;;;;;;;;;;;;;-68
2023/06/19 10:28:20;;;;;;;;;;;;;;;24.18;54.94629;101383.8;;;;-68
2023/06/19 10:33:13;;;;;;;;;;;;;;;24.26;54.0918;101389.9;;;;-68
2023/06/19 10:38:10;;;;;;;;;;;;;;;24.47;53.54199;101383.7;;;;-67
2023/06/19 10:43:11;;;;;;;;;;;;;;;24.6;53.39551;101388.3;;;;-68
2023/06/19 10:48:10;;;;;;;;;;;;;;;24.86;52.91992;101391.3;;;;-69
2023/06/19 10:53:13;;;;;;;;;;;;;;;24.86;52.55176;101383.1;;;;-68
2023/06/19 10:56:08;;;;;;;0.4;0.2;;;;;;;;;;;;;-69
2023/06/19 10:58:10;;;;;;;;;;;;;;;25.2;52.24609;101384.5;;;;-68
2023/06/19 11:03:13;;;;;;;;;;;;;;;25.53;52.45605;101386.6;;;;-67
2023/06/19 11:08:10;;;;;;;;;;;;;;;25.61;50.68848;101378.6;;;;-68
2023/06/19 11:13:17;;;;;;;;;;;;;;;25.95;51.54688;101372.9;;;;-68
2023/06/19 11:18:10;;;;;;;;;;;;;;;26.29;50.61426;101382.3;;;;-67
2023/06/19 11:23:11;;;;;;;;;;;;;;;26.57;50.51758;101387.1;;;;-67
2023/06/19 11:26:12;;;;;;;0.2;0;;;;;;;;;;;;;-67
2023/06/19 11:28:14;;;;;;;;;;;;;;;27.01;50.3584;101373.8;;;;-69
2023/06/19 11:33:21;;;;;;;;;;;;;;;27.36;50.26855;101372.5;;;;-67
2023/06/19 11:38:10;;;;;;;;;;;;;;;27.67;49.82813;101371.7;;;;-68
2023/06/19 11:43:10;;;;;;;;;;;;;;;27.75;49.42969;101368.5;;;;-68
2023/06/19 11:48:12;;;;;;;;;;;;;;;28.17;49.12793;101366.4;;;;-69
2023/06/19 11:53:10;;;;;;;;;;;;;;;28.5;48.15039;101369.2;;;;-68
2023/06/19 11:56:16;;;;;;;0.2;0.1;;;;;;;;;;;;;-68
2023/06/19 11:58:10;;;;;;;;;;;;;;;28.77;48.24902;101372.6;;;;-67
2023/06/19 12:03:11;;;;;;;;;;;;;;;28.99;47.49219;101378.2;;;;-67
2023/06/19 12:08:10;;;;;;;;;;;;;;;29.13;47.34375;101383;;;;-69
2023/06/19 12:13:10;;;;;;;;;;;;;;;29.21;46.73535;101389.5;;;;-68
2023/06/19 12:18:12;;;;;;;;;;;;;;;29.36;46.99609;101397;;;;-69
2023/06/19 12:23:10;;;;;;;;;;;;;;;29.58;46.33008;101396;;;;-69
2023/06/19 12:26:24;;;;;;;0.4;0;;;;;;;;;;;;;-69
2023/06/19 12:28:16;;;;;;;;;;;;;;;29.91;45.82617;101396.5;;;;-67
2023/06/19 12:33:10;;;;;;;;;;;;;;;30.12;44.45605;101401.5;;;;-67
2023/06/19 12:38:10;;;;;;;;;;;;;;;30.05;44.41602;101398.5;;;;-68
2023/06/19 12:43:10;;;;;;;;;;;;;;;30.04;45.90918;101400.7;;;;-67
2023/06/19 12:48:10;;;;;;;;;;;;;;;30.11;45.14551;101402.7;;;;-68
2023/06/19 12:53:11;;;;;;;;;;;;;;;30.33;44.81641;101404.5;;;;-68
2023/06/19 12:56:26;;;;;;;0.2;0;;;;;;;;;;;;;-68
2023/06/19 12:58:10;;;;;;;;;;;;;;;30.65;43.70117;101411.5;;;;-68
2023/06/19 13:03:10;;;;;;;;;;;;;;;30.82;42.18262;101411.2;;;;-67
2023/06/19 13:08:10;;;;;;;;;;;;;;;31.02;43.12793;101415.7;;;;-68
2023/06/19 13:13:10;;;;;;;;;;;;;;;31.11;43.04297;101411.3;;;;-69
2023/06/19 13:18:10;;;;;;;;;;;;;;;31.15;42.31934;101416.5;;;;-70
2023/06/19 13:23:10;;;;;;;;;;;;;;;31.38;41.42578;101413.7;;;;-69
2023/06/19 13:26:32;;;;;;;0.2;0;;;;;;;;;;;;;-71
2023/06/19 13:28:10;;;;;;;;;;;;;;;31.5;41.45996;101412.6;;;;-68
2023/06/19 13:33:11;;;;;;;;;;;;;;;31.6;40.09473;101408.9;;;;-68
2023/06/19 13:38:10;;;;;;;;;;;;;;;31.61;39.54395;101408.1;;;;-67
2023/06/19 13:43:10;;;;;;;;;;;;;;;31.76;41.36621;101396.9;;;;-69
2023/06/19 13:48:10;;;;;;;;;;;;;;;31.87;41.21191;101394.3;;;;-68
2023/06/19 13:53:11;;;;;;;;;;;;;;;31.99;40.31738;101397.1;;;;-68
2023/06/19 13:56:37;;;;;;;0.2;0;;;;;;;;;;;;;-67
2023/06/19 13:58:10;;;;;;;;;;;;;;;31.99;39.6709;101393.4;;;;-69
2023/06/19 14:03:10;;;;;;;;;;;;;;;32.05;40.21777;101391.7;;;;-68
2023/06/19 14:08:10;;;;;;;;;;;;;;;32.06;39.24219;101393.1;;;;-68
2023/06/19 14:13:12;;;;;;;;;;;;;;;32.15;39.8623;101390.6;;;;-70
2023/06/19 14:18:10;;;;;;;;;;;;;;;32.16;39.45117;101386;;;;-67
2023/06/19 14:23:10;;;;;;;;;;;;;;;32.22;38.3623;101382.9;;;;-68
2023/06/19 14:26:43;;;;;;;0.2;0.1;;;;;;;;;;;;;-68
2023/06/19 14:28:10;;;;;;;;;;;;;;;32.27;37.86035;101392.5;;;;-67
2023/06/19 14:33:14;;;;;;;;;;;;;;;32.25;38;101392.2;;;;-66
2023/06/19 14:38:10;;;;;;;;;;;;;;;32.25;37.84766;101395.1;;;;-70
2023/06/19 14:43:10;;;;;;;;;;;;;;;32.23;38.375;101389.9;;;;-67
2023/06/19 14:48:10;;;;;;;;;;;;;;;32.23;37.65723;101386;;;;-67
2023/06/19 14:53:10;;;;;;;;;;;;;;;32.21;37.57324;101388.2;;;;-70
2023/06/19 14:56:50;;;;;;;0.1;0;;;;;;;;;;;;;-68
2023/06/19 14:58:10;;;;;;;;;;;;;;;32.21;38.16211;101380;;;;-67
2023/06/19 15:03:11;;;;;;;;;;;;;;;32.16;37.59277;101383;;;;-72
2023/06/19 15:08:10;;;;;;;;;;;;;;;32.24;36.22168;101380;;;;-68
2023/06/19 15:13:10;;;;;;;;;;;;;;;32.15;36.89746;101382;;;;-67
2023/06/19 15:18:11;;;;;;;;;;;;;;;32.11;36.2832;101385.8;;;;-68
2023/06/19 15:23:10;;;;;;;;;;;;;;;32.09;36.69238;101382.7;;;;-68
2023/06/19 15:26:56;;;;;;;0.2;0;;;;;;;;;;;;;-67
2023/06/19 15:28:10;;;;;;;;;;;;;;;32.01;37.2041;101379.8;;;;-69
2023/06/19 15:33:10;;;;;;;;;;;;;;;31.94;36.85645;101376.4;;;;-69
2023/06/19 15:38:10;;;;;;;;;;;;;;;31.8;36.5752;101372.1;;;;-68
2023/06/19 15:43:10;;;;;;;;;;;;;;;31.67;35.98926;101373.8;;;;-68
2023/06/19 15:48:10;;;;;;;;;;;;;;;31.54;36.34277;101374.8;;;;-70
2023/06/19 15:53:10;;;;;;;;;;;;;;;31.49;36.15039;101368.6;;;;-69
2023/06/19 15:57:04;;;;;;;0.1;0;;;;;;;;;;;;;-71
2023/06/19 15:58:10;;;;;;;;;;;;;;;31.45;35.86621;101366.6;;;;-72
2023/06/19 16:03:10;;;;;;;;;;;;;;;31.38;35.70703;101362.8;;;;-69
2023/06/19 16:08:10;;;;;;;;;;;;;;;31.21;35.9873;101362.3;;;;-68
2023/06/19 16:13:10;;;;;;;;;;;;;;;31.16;36.23047;101366.8;;;;-67
2023/06/19 16:18:13;;;;;;;;;;;;;;;31.13;35.54688;101366.1;;;;-69
2023/06/19 16:23:10;;;;;;;;;;;;;;;31.02;36.30078;101359.5;;;;-68
2023/06/19 16:27:06;;;;;;;0.2;0;;;;;;;;;;;;;-69
2023/06/19 16:28:10;;;;;;;;;;;;;;;30.91;36.01172;101360.7;;;;-69
2023/06/19 16:33:10;;;;;;;;;;;;;;;30.79;36.13086;101365.9;;;;-68
2023/06/19 16:38:10;;;;;;;;;;;;;;;30.68;36.35645;101366.5;;;;-68
2023/06/19 16:43:10;;;;;;;;;;;;;;;30.55;36.49902;101371.3;;;;-67
2023/06/19 16:48:10;;;;;;;;;;;;;;;30.5;36.33008;101377.3;;;;-69
2023/06/19 16:53:10;;;;;;;;;;;;;;;30.29;36.86426;101369.2;;;;-68
2023/06/19 16:57:12;;;;;;;0.2;0;;;;;;;;;;;;;-71
2023/06/19 16:58:10;;;;;;;;;;;;;;;30.09;37.15234;101364.7;;;;-69
2023/06/19 17:03:16;;;;;;;;;;;;;;;29.92;37.16211;101365.8;;;;-70
2023/06/19 17:08:10;;;;;;;;;;;;;;;29.69;37.98633;101362.8;;;;-71
2023/06/19 17:13:10;;;;;;;;;;;;;;;29.47;38.1543;101369.3;;;;-68
2023/06/19 17:18:10;;;;;;;;;;;;;;;29.25;38.26465;101366.8;;;;-68
2023/06/19 17:23:11;;;;;;;;;;;;;;;29.08;38.28613;101361.4;;;;-67
2023/06/19 17:27:20;;;;;;;0.4;0.1;;;;;;;;;;;;;-68
2023/06/19 17:28:10;;;;;;;;;;;;;;;28.93;38.37891;101367.2;;;;-68
2023/06/19 17:33:14;;;;;;;;;;;;;;;28.8;38.18066;101364.5;;;;-70
2023/06/19 17:38:10;;;;;;;;;;;;;;;28.61;38.44434;101360.4;;;;-70
2023/06/19 17:43:10;;;;;;;;;;;;;;;28.43;38.42969;101361.7;;;;-68
2023/06/19 17:48:10;;;;;;;;;;;;;;;28.25;38.45996;101354;;;;-70
2023/06/19 17:53:11;;;;;;;;;;;;;;;28.1;38.59863;101351.2;;;;-71
2023/06/19 17:57:23;;;;;;;0.2;0;;;;;;;;;;;;;-69
2023/06/19 17:58:10;;;;;;;;;;;;;;;27.93;38.56152;101347.1;;;;-69
2023/06/19 18:03:10;;;;;;;;;;;;;;;27.77;38.65234;101350.7;;;;-69
2023/06/19 18:08:10;;;;;;;;;;;;;;;27.6;38.56836;101350.4;;;;-72
2023/06/19 18:13:10;;;;;;;;;;;;;;;27.45;38.40332;101351.5;;;;-70
2023/06/19 18:18:10;;;;;;;;;;;;;;;27.3;38.29785;101359.6;;;;-70
2023/06/19 18:23:10;;;;;;;;;;;;;;;27.15;38.11035;101365.4;;;;-69
2023/06/19 18:27:31;;;;;;;0.2;0;;;;;;;;;;;;;-70
2023/06/19 18:28:10;;;;;;;;;;;;;;;27.02;37.66895;101361.9;;;;-69
2023/06/19 18:33:10;;;;;;;;;;;;;;;26.87;37.4834;101363;;;;-70
2023/06/19 18:38:12;;;;;;;;;;;;;;;26.71;37.46875;101366.6;;;;-70
2023/06/19 18:43:12;;;;;;;;;;;;;;;26.56;37.53809;101362.1;;;;-69
2023/06/19 18:48:10;;;;;;;;;;;;;;;26.39;37.54688;101354.9;;;;-70
2023/06/19 18:53:11;;;;;;;;;;;;;;;26.22;37.61426;101355.1;;;;-70
2023/06/19 18:57:32;;;;;;;0.2;0;;;;;;;;;;;;;-70
2023/06/19 18:58:10;;;;;;;;;;;;;;;26.05;37.74023;101352.5;;;;-70
2023/06/19 19:03:11;;;;;;;;;;;;;;;25.88;37.8877;101353.7;;;;-69
2023/06/19 19:08:12;;;;;;;;;;;;;;;25.71;38.18652;101362.1;;;;-71
2023/06/19 19:13:11;;;;;;;;;;;;;;;25.54;38.55371;101364.3;;;;-69
2023/06/19 19:18:10;;;;;;;;;;;;;;;25.35;38.48047;101366.1;;;;-70
2023/06/19 19:23:13;;;;;;;;;;;;;;;25.17;38.68457;101356.6;;;;-69
2023/06/19 19:27:37;;;;;;;0.3;0.1;;;;;;;;;;;;;-70
2023/06/19 19:28:13;;;;;;;;;;;;;;;25;38.84473;101356.6;;;;-69
2023/06/19 19:33:13;;;;;;;;;;;;;;;24.82;39.19922;101363.9;;;;-71
2023/06/19 19:38:16;;;;;;;;;;;;;;;24.67;39.39355;101367.5;;;;-71
2023/06/19 19:43:13;;;;;;;;;;;;;;;24.5;39.87598;101367.9;;;;-70
2023/06/19 19:48:10;;;;;;;;;;;;;;;23.95;45.14551;101376.4;;;;-71
2023/06/19 19:53:12;;;;;;;;;;;;;;;23.15;47.92969;101379.2;;;;-70
2023/06/19 19:57:41;;;;;;;0.2;0;;;;;;;;;;;;;-67
2023/06/19 19:58:10;;;;;;;;;;;;;;;23.77;43.16699;101381.5;;;;-68
2023/06/19 20:03:11;;;;;;;;;;;;;;;23.77;42.86719;101388.8;;;;-68
2023/06/19 20:08:10;;;;;;;;;;;;;;;23.66;42.51172;101391.9;;;;-68
2023/06/19 20:13:11;;;;;;;;;;;;;;;23.54;42.81152;101386.8;;;;-67
2023/06/19 20:18:10;;;;;;;;;;;;;;;23.43;43.00879;101401.4;;;;-67
2023/06/19 20:23:10;;;;;;;;;;;;;;;23.31;42.97266;101405.7;;;;-66
2023/06/19 20:27:45;;;;;;;0.2;0;;;;;;;;;;;;;-68
2023/06/19 20:28:10;;;;;;;;;;;;;;;23.19;42.88086;101400.9;;;;-67
2023/06/19 20:33:10;;;;;;;;;;;;;;;23.08;42.97461;101402;;;;-65
2023/06/19 20:38:13;;;;;;;;;;;;;;;22.98;42.83887;101398.6;;;;-67
2023/06/19 20:43:13;;;;;;;;;;;;;;;22.87;42.85059;101399.3;;;;-67
2023/06/19 20:48:10;;;;;;;;;;;;;;;22.76;42.7832;101401.8;;;;-67
2023/06/19 20:53:12;;;;;;;;;;;;;;;22.63;43.11621;101402.7;;;;-67
2023/06/19 20:57:48;;;;;;;0.5;0.2;;;;;;;;;;;;;-65
2023/06/19 20:58:10;;;;;;;;;;;;;;;22.57;43.0752;101408.3;;;;-67
2023/06/19 21:03:10;;;;;;;;;;;;;;;22.47;43.16895;101415.3;;;;-66
2023/06/19 21:08:10;;;;;;;;;;;;;;;22.35;43.23828;101416.9;;;;-67
2023/06/19 21:13:10;;;;;;;;;;;;;;;22.27;43.08008;101420.8;;;;-67
2023/06/19 21:18:10;;;;;;;;;;;;;;;22.21;43.41992;101423.1;;;;-67
2023/06/19 21:23:10;;;;;;;;;;;;;;;22.11;43.39844;101425.5;;;;-66
2023/06/19 21:27:52;;;;;;;0.2;0.1;;;;;;;;;;;;;-67
2023/06/19 21:28:10;;;;;;;;;;;;;;;22.05;43.4375;101431;;;;-69
2023/06/19 21:33:13;;;;;;;;;;;;;;;21.99;43.35254;101425;;;;-68
2023/06/19 21:38:11;;;;;;;;;;;;;;;21.96;43.46387;101418.9;;;;-69
2023/06/19 21:43:10;;;;;;;;;;;;;;;21.92;43.45996;101422.1;;;;-68
2023/06/19 21:48:10;;;;;;;;;;;;;;;21.88;43.51367;101416;;;;-68
2023/06/19 21:53:13;;;;;;;;;;;;;;;21.85;43.5791;101408.8;;;;-68
2023/06/19 21:57:58;;;;;;;0.8;0.4;;;;;;;;;;;;;-68
2023/06/19 21:58:10;;;;;;;;;;;;;;;21.81;43.62305;101410.7;;;;-68
2023/06/19 22:03:10;;;;;;;;;;;;;;;21.8;43.82715;101410.1;;;;-68
2023/06/19 22:08:10;;;;;;;;;;;;;;;21.79;43.54004;101407.8;;;;-70
2023/06/19 22:13:11;;;;;;;;;;;;;;;21.75;43.74219;101403.1;;;;-69
2023/06/19 22:18:15;;;;;;;;;;;;;;;21.74;43.66016;101400.5;;;;-69
2023/06/19 22:23:10;;;;;;;;;;;;;;;21.7;43.71484;101391.8;;;;-68
2023/06/19 22:27:58;;;;;;;0.2;0;;;;;;;;;;;;;-70
2023/06/19 22:28:13;;;;;;;;;;;;;;;21.67;43.86035;101386.6;;;;-69
2023/06/19 22:33:13;;;;;;;;;;;;;;;21.65;43.84668;101387.4;;;;-70
2023/06/19 22:38:10;;;;;;;;;;;;;;;21.64;44.13281;101388.1;;;;-69
2023/06/19 22:43:10;;;;;;;;;;;;;;;21.62;44.22266;101385.6;;;;-67
2023/06/19 22:48:13;;;;;;;;;;;;;;;21.62;44.17676;101383.1;;;;-68
2023/06/19 22:53:10;;;;;;;;;;;;;;;21.59;44.26563;101386.8;;;;-70
2023/06/19 22:58:02;;;;;;;0.2;0.1;;;;;;;;;;;;;-69
2023/06/19 22:58:13;;;;;;;;;;;;;;;21.58;44.29883;101382.6;;;;-70
2023/06/19 23:03:10;;;;;;;;;;;;;;;21.58;44.49414;101380.8;;;;-68
2023/06/19 23:08:10;;;;;;;;;;;;;;;21.58;44.58496;101373.8;;;;-70
2023/06/19 23:13:10;;;;;;;;;;;;;;;21.55;44.63965;101366.9;;;;-68
2023/06/19 23:18:13;;;;;;;;;;;;;;;21.54;44.79883;101369.2;;;;-69
2023/06/19 23:23:10;;;;;;;;;;;;;;;21.51;44.63574;101366.5;;;;-68
2023/06/19 23:28:06;;;;;;;0.5;0.1;;;;;;;;;;;;;-69
2023/06/19 23:28:17;;;;;;;;;;;;;;;21.47;44.94141;101358.1;;;;-68
2023/06/19 23:33:10;;;;;;;;;;;;;;;21.47;45.25098;101360.5;;;;-68
2023/06/19 23:38:10;;;;;;;;;;;;;;;21.44;45.30469;101361.1;;;;-67
2023/06/19 23:43:11;;;;;;;;;;;;;;;21.43;45.54395;101355.6;;;;-68
2023/06/19 23:48:10;;;;;;;;;;;;;;;21.42;45.60156;101354.5;;;;-67
2023/06/19 23:53:10;;;;;;;;;;;;;;;21.41;45.97852;101348.9;;;;-69
2023/06/19 23:58:08;;;;;;;0.2;0;;;;;;;;;;;;;-69
2023/06/19 23:58:20;;;;;;;;;;;;;;;21.42;45.73828;101341;;;;-69
